Time;durP1;ratioP1;P1;durP2;ratioP2;P2;SDS_P1;SDS_P2;PMS_P1;PMS_P2;Temp;Humidity;BMP_temperature;BMP_pressure;BME280_temperature;BME280_humidity;BME280_pressure;Samples;Min_cycle;Max_cycle;Signal;HPM_P1;HPM_P2
2021/03/06 00:00:18;;;;;;;9.13;6.77;;;2.90;99.90;;;;;;5107416;28;20191;-82
2021/03/06 00:02:44;;;;;;;11.23;6.17;;;2.80;99.90;;;;;;5100622;28;20185;-88
2021/03/06 00:08:32;;;;;;;10.97;6.50;;;2.80;99.90;;;;;;5095090;28;20186;-82
2021/03/06 00:10:57;;;;;;;11.80;6.23;;;2.80;99.90;;;;;;5094297;28;20623;-86
2021/03/06 00:13:24;;;;;;;11.53;6.73;;;2.80;99.90;;;;;;5093191;28;20168;-86
2021/03/06 00:15:50;;;;;;;11.33;6.07;;;2.80;99.90;;;;;;5094761;28;20590;-85
2021/03/06 00:18:16;;;;;;;8.00;6.53;;;2.80;99.90;;;;;;5092758;28;20178;-82
2021/03/06 00:20:42;;;;;;;12.00;6.83;;;2.80;99.90;;;;;;5093026;28;20179;-87
2021/03/06 00:23:08;;;;;;;9.80;6.40;;;2.70;99.90;;;;;;5093182;28;20179;-82
2021/03/06 00:25:33;;;;;;;11.83;6.83;;;2.80;99.90;;;;;;5092025;28;20182;-82
2021/03/06 00:27:59;;;;;;;10.73;5.80;;;2.70;99.90;;;;;;5091924;28;20178;-82
2021/03/06 00:30:25;;;;;;;11.73;6.50;;;2.60;99.90;;;;;;5092922;28;20537;-80
2021/03/06 00:32:51;;;;;;;10.27;6.13;;;2.50;99.90;;;;;;5093507;28;20155;-87
2021/03/06 00:35:17;;;;;;;9.73;6.63;;;2.50;99.90;;;;;;5093526;28;20193;-82
2021/03/06 00:37:43;;;;;;;10.80;6.20;;;2.50;99.90;;;;;;5093770;28;20176;-84
2021/03/06 00:40:10;;;;;;;10.40;6.67;;;2.50;99.90;;;;;;5092478;28;20259;-83
2021/03/06 00:42:36;;;;;;;9.80;6.10;;;2.50;99.90;;;;;;5092084;28;20183;-82
2021/03/06 00:45:03;;;;;;;11.43;6.90;;;2.60;99.90;;;;;;5094224;28;20581;-88
2021/03/06 00:47:29;;;;;;;8.67;6.80;;;2.50;99.90;;;;;;5093098;28;20238;-84
2021/03/06 00:49:54;;;;;;;12.50;6.43;;;2.40;99.90;;;;;;5097324;28;20532;-80
2021/03/06 00:52:20;;;;;;;10.20;6.23;;;2.40;99.90;;;;;;5104638;28;20176;-80
2021/03/06 00:54:46;;;;;;;11.17;6.93;;;2.40;99.90;;;;;;5101453;28;20174;-85
2021/03/06 00:57:11;;;;;;;10.17;6.67;;;2.40;99.90;;;;;;5094867;28;20221;-83
2021/03/06 00:59:37;;;;;;;14.50;6.87;;;2.40;99.90;;;;;;5093146;28;20180;-82
2021/03/06 01:02:06;;;;;;;9.63;6.03;;;2.40;99.90;;;;;;5094802;28;20182;-80
2021/03/06 01:04:31;;;;;;;9.80;6.03;;;2.30;99.90;;;;;;5094335;28;20160;-83
2021/03/06 01:06:57;;;;;;;13.80;6.67;;;2.40;99.90;;;;;;5093003;28;20211;-86
2021/03/06 01:09:23;;;;;;;9.07;5.27;;;2.40;99.90;;;;;;5092391;28;20188;-86
2021/03/06 01:11:49;;;;;;;12.13;6.67;;;2.40;99.90;;;;;;5096954;28;20175;-86
2021/03/06 01:14:15;;;;;;;11.27;5.80;;;2.40;99.90;;;;;;5096270;28;20186;-81
2021/03/06 01:16:40;;;;;;;12.93;6.00;;;2.30;99.90;;;;;;5108759;27;20274;-80
2021/03/06 01:19:07;;;;;;;9.30;6.10;;;2.30;99.90;;;;;;5114727;27;20192;-80
2021/03/06 01:21:33;;;;;;;9.10;5.73;;;2.30;99.90;;;;;;5110524;28;20175;-80
2021/03/06 01:23:59;;;;;;;8.83;6.43;;;2.30;99.90;;;;;;5111656;28;20167;-81
2021/03/06 01:26:30;;;;;;;11.73;6.10;;;2.30;99.90;;;;;;5088284;28;20227;-83
2021/03/06 01:28:56;;;;;;;9.03;6.37;;;2.30;99.90;;;;;;5093860;28;20623;-86
2021/03/06 01:31:24;;;;;;;9.83;5.93;;;2.30;99.90;;;;;;5094668;28;20176;-85
2021/03/06 01:33:49;;;;;;;10.83;6.30;;;2.30;99.90;;;;;;5093080;28;20171;-87
2021/03/06 01:36:15;;;;;;;9.37;6.00;;;2.20;99.90;;;;;;5094199;28;20172;-86
2021/03/06 01:38:41;;;;;;;11.37;6.37;;;2.20;99.90;;;;;;5092842;28;20175;-83
2021/03/06 01:41:06;;;;;;;11.60;6.77;;;2.20;99.90;;;;;;5094274;28;20248;-86
2021/03/06 01:43:32;;;;;;;7.70;5.60;;;2.30;99.90;;;;;;5092603;28;20229;-81
2021/03/06 01:45:58;;;;;;;12.60;6.13;;;2.20;99.90;;;;;;5096039;28;20317;-83
2021/03/06 01:48:23;;;;;;;11.17;6.50;;;2.20;99.90;;;;;;5097763;28;20175;-80
2021/03/06 01:50:51;;;;;;;8.53;6.23;;;2.20;99.90;;;;;;5109749;27;20197;-80
2021/03/06 01:53:18;;;;;;;11.37;6.43;;;2.20;99.90;;;;;;5120321;27;20181;-81
2021/03/06 01:55:46;;;;;;;10.03;6.23;;;2.20;99.90;;;;;;5103045;28;20156;-82
2021/03/06 01:58:14;;;;;;;10.40;5.80;;;2.20;99.90;;;;;;5110658;27;20175;-87
2021/03/06 02:00:41;;;;;;;11.00;6.83;;;2.20;99.90;;;;;;5100901;28;20164;-88
2021/03/06 02:03:07;;;;;;;8.80;6.10;;;2.20;99.90;;;;;;5099609;28;20171;-81
2021/03/06 02:05:32;;;;;;;8.83;6.17;;;2.20;99.90;;;;;;5102849;28;20182;-82
2021/03/06 02:07:58;;;;;;;8.43;6.50;;;2.10;99.90;;;;;;5102835;28;20171;-82
2021/03/06 02:10:28;;;;;;;14.33;6.73;;;2.10;99.90;;;;;;5097431;28;20168;-86
2021/03/06 02:16:34;;;;;;;11.23;6.63;;;2.20;99.90;;;;;;5097449;28;20163;-80
2021/03/06 02:19:19;;;;;;;9.73;6.20;;;2.30;99.90;;;;;;5095809;28;20195;-81
2021/03/06 02:22:55;;;;;;;9.13;6.20;;;2.20;99.90;;;;;;5096065;28;20505;-87
2021/03/06 02:25:39;;;;;;;10.70;7.10;;;2.20;99.90;;;;;;4979669;28;20183;-83
2021/03/06 02:28:36;;;;;;;11.50;6.00;;;2.20;99.90;;;;;;5000829;28;20273;-87
2021/03/06 02:31:04;;;;;;;10.37;6.20;;;2.20;99.90;;;;;;5118379;27;20175;-80
2021/03/06 02:33:35;;;;;;;8.67;6.07;;;2.20;99.90;;;;;;5101992;28;20175;-83
2021/03/06 02:36:10;;;;;;;10.33;6.70;;;2.20;99.90;;;;;;5097783;28;20255;-86
2021/03/06 02:38:49;;;;;;;8.27;6.40;;;2.10;99.90;;;;;;5113560;27;20212;-80
2021/03/06 02:41:18;;;;;;;11.90;6.93;;;2.10;99.90;;;;;;5117570;27;20170;-80
2021/03/06 02:43:44;;;;;;;11.50;6.83;;;2.10;99.90;;;;;;5117069;27;20163;-80
2021/03/06 02:46:10;;;;;;;14.43;6.33;;;2.00;99.90;;;;;;5116072;27;20214;-81
2021/03/06 02:48:37;;;;;;;11.67;6.80;;;2.00;99.90;;;;;;5110218;28;20152;-85
2021/03/06 02:51:03;;;;;;;10.40;6.73;;;2.00;99.90;;;;;;5117139;27;20174;-80
2021/03/06 02:53:29;;;;;;;9.73;7.00;;;1.90;99.90;;;;;;5110564;28;20537;-87
2021/03/06 02:55:55;;;;;;;11.87;7.60;;;1.90;99.90;;;;;;5103373;28;20180;-88
2021/03/06 02:58:27;;;;;;;11.97;7.07;;;1.90;99.90;;;;;;5096799;28;20195;-86
2021/03/06 03:01:14;;;;;;;12.57;7.63;;;1.80;99.90;;;;;;5095582;28;20274;-86
2021/03/06 03:04:32;;;;;;;11.67;6.70;;;1.80;99.90;;;;;;5097834;28;20206;-87
2021/03/06 03:07:07;;;;;;;12.50;7.37;;;1.90;99.90;;;;;;5097556;28;20231;-87
2021/03/06 03:09:36;;;;;;;10.50;7.30;;;1.90;99.90;;;;;;5097729;28;20160;-85
2021/03/06 03:12:20;;;;;;;12.50;7.20;;;1.80;99.90;;;;;;5098664;28;20243;-85
2021/03/06 03:15:08;;;;;;;11.07;7.30;;;1.80;99.90;;;;;;5105215;28;20215;-79
2021/03/06 03:17:40;;;;;;;12.07;7.77;;;1.80;99.90;;;;;;5116316;28;20152;-79
2021/03/06 03:20:32;;;;;;;10.50;7.50;;;1.70;99.90;;;;;;5116877;27;20217;-78
2021/03/06 03:23:39;;;;;;;11.70;7.10;;;1.80;99.90;;;;;;5117987;27;20184;-82
2021/03/06 03:26:51;;;;;;;9.17;7.13;;;1.70;99.90;;;;;;5104769;28;20222;-85
2021/03/06 03:29:29;;;;;;;10.83;7.03;;;1.70;99.90;;;;;;5101869;28;20681;-87
2021/03/06 03:32:03;;;;;;;12.97;7.40;;;1.60;99.90;;;;;;5097150;28;20289;-86
2021/03/06 03:34:33;;;;;;;14.20;7.67;;;1.60;99.90;;;;;;5096863;28;20172;-85
2021/03/06 03:37:00;;;;;;;12.57;8.20;;;1.60;99.90;;;;;;5098974;28;20167;-86
2021/03/06 03:39:26;;;;;;;11.83;7.20;;;1.60;99.90;;;;;;5096500;28;20176;-87
2021/03/06 03:41:52;;;;;;;11.40;7.63;;;1.60;99.90;;;;;;5101666;28;20696;-82
2021/03/06 03:44:19;;;;;;;13.27;8.00;;;1.50;99.90;;;;;;5107233;28;20176;-80
2021/03/06 03:46:46;;;;;;;14.00;8.33;;;1.50;99.90;;;;;;5106197;28;20203;-84
2021/03/06 03:49:19;;;;;;;10.83;7.90;;;1.50;99.90;;;;;;5101721;28;20635;-85
2021/03/06 03:51:46;;;;;;;12.67;7.63;;;1.40;99.90;;;;;;5095854;28;20168;-84
2021/03/06 03:54:14;;;;;;;13.40;7.53;;;1.60;99.90;;;;;;5113049;28;20231;-80
2021/03/06 03:56:40;;;;;;;12.70;8.47;;;1.50;99.90;;;;;;5113299;27;20627;-82
2021/03/06 03:59:06;;;;;;;10.90;7.37;;;1.40;99.90;;;;;;5112871;28;20175;-86
2021/03/06 04:01:43;;;;;;;10.63;7.57;;;1.40;99.90;;;;;;5098550;28;20187;-79
2021/03/06 04:04:30;;;;;;;11.27;7.83;;;1.40;99.90;;;;;;5096310;28;20186;-85
2021/03/06 04:06:58;;;;;;;12.67;8.37;;;1.50;99.90;;;;;;5095502;28;20233;-84
2021/03/06 04:09:24;;;;;;;13.47;8.70;;;1.40;99.90;;;;;;5096610;28;20502;-79
2021/03/06 04:11:51;;;;;;;16.03;7.77;;;1.40;99.90;;;;;;5096607;28;20187;-85
2021/03/06 04:14:17;;;;;;;13.10;7.97;;;1.30;99.90;;;;;;5094236;28;20172;-85
2021/03/06 04:16:43;;;;;;;10.67;8.30;;;1.20;99.90;;;;;;5095251;28;20567;-86
2021/03/06 04:19:08;;;;;;;16.70;8.07;;;1.20;99.90;;;;;;5096965;28;20188;-86
2021/03/06 04:21:34;;;;;;;11.43;8.00;;;1.20;99.90;;;;;;5098415;28;20202;-87
2021/03/06 04:24:00;;;;;;;12.53;8.20;;;1.10;99.90;;;;;;5112320;27;20207;-78
2021/03/06 04:26:26;;;;;;;11.27;7.97;;;1.00;99.90;;;;;;5112078;27;20272;-79
2021/03/06 04:28:52;;;;;;;13.33;8.77;;;1.10;99.90;;;;;;5111005;27;20184;-80
2021/03/06 04:31:18;;;;;;;17.13;8.30;;;1.20;99.90;;;;;;5111177;28;20184;-79
2021/03/06 04:33:44;;;;;;;11.13;8.23;;;1.10;99.90;;;;;;5110790;28;20167;-86
2021/03/06 04:36:27;;;;;;;12.77;8.93;;;1.10;99.90;;;;;;5098923;28;20171;-83
2021/03/06 04:39:32;;;;;;;15.67;8.30;;;1.10;99.90;;;;;;5097487;28;20627;-79
2021/03/06 04:42:03;;;;;;;15.63;8.93;;;1.00;99.90;;;;;;5097777;28;20190;-85
2021/03/06 04:45:00;;;;;;;12.47;8.03;;;1.00;99.90;;;;;;5096852;28;20185;-81
2021/03/06 04:47:26;;;;;;;12.33;7.67;;;1.00;99.90;;;;;;5113709;27;20219;-81
2021/03/06 04:49:52;;;;;;;10.33;8.00;;;1.00;99.90;;;;;;5116541;27;20639;-80
2021/03/06 04:52:19;;;;;;;14.77;8.80;;;1.00;99.90;;;;;;5098700;28;20225;-85
2021/03/06 04:54:44;;;;;;;12.50;8.20;;;1.10;99.90;;;;;;5094435;28;20181;-86
2021/03/06 04:57:11;;;;;;;12.50;8.07;;;1.10;99.90;;;;;;5093279;28;20172;-85
2021/03/06 04:59:37;;;;;;;13.03;9.17;;;1.00;99.90;;;;;;5094556;28;20259;-81
2021/03/06 05:02:03;;;;;;;12.83;8.40;;;1.00;99.90;;;;;;5094754;28;20210;-83
2021/03/06 05:04:28;;;;;;;9.60;7.60;;;1.00;99.90;;;;;;5095817;28;20171;-86
2021/03/06 05:06:54;;;;;;;16.80;9.00;;;1.00;99.90;;;;;;5094656;28;20574;-84
2021/03/06 05:09:19;;;;;;;11.00;8.17;;;1.10;99.90;;;;;;5093766;28;20178;-85
2021/03/06 05:11:45;;;;;;;12.43;8.50;;;1.10;99.90;;;;;;5093703;28;20188;-82
2021/03/06 05:14:11;;;;;;;12.53;8.23;;;1.10;99.90;;;;;;5094710;28;20176;-82
2021/03/06 05:16:37;;;;;;;15.30;8.80;;;1.10;99.90;;;;;;5117791;27;20206;-85
2021/03/06 05:19:05;;;;;;;10.70;8.23;;;1.00;99.90;;;;;;5107667;28;20577;-79
2021/03/06 05:21:31;;;;;;;15.03;8.93;;;1.10;99.90;;;;;;5104387;28;20282;-86
2021/03/06 05:24:00;;;;;;;14.50;10.27;;;1.10;99.90;;;;;;5098147;28;20199;-85
2021/03/06 05:26:26;;;;;;;15.23;9.07;;;1.00;99.90;;;;;;5081495;28;20560;-84
2021/03/06 05:28:51;;;;;;;12.30;9.60;;;1.00;99.90;;;;;;5099730;28;20263;-81
2021/03/06 05:31:27;;;;;;;15.50;9.23;;;1.00;99.90;;;;;;5098804;28;20171;-87
2021/03/06 05:33:53;;;;;;;13.13;8.43;;;1.00;99.90;;;;;;5092854;27;20159;-81
2021/03/06 05:36:19;;;;;;;16.90;8.83;;;0.70;99.90;;;;;;5119415;27;20189;-83
2021/03/06 05:38:46;;;;;;;13.93;9.37;;;0.80;99.90;;;;;;5106910;28;20168;-84
2021/03/06 05:44:42;;;;;;;13.37;9.37;;;0.80;99.90;;;;;;5114264;28;20246;-85
2021/03/06 05:47:08;;;;;;;18.37;9.03;;;0.90;99.90;;;;;;5098646;28;20298;-85
2021/03/06 05:49:35;;;;;;;15.40;9.30;;;0.90;99.90;;;;;;5099293;28;20564;-84
2021/03/06 05:52:05;;;;;;;14.67;9.20;;;0.90;99.90;;;;;;5096839;28;20254;-85
2021/03/06 05:54:34;;;;;;;15.53;10.57;;;0.90;99.90;;;;;;5096548;28;20240;-85
2021/03/06 05:57:02;;;;;;;12.23;9.77;;;1.00;99.90;;;;;;5097386;28;20647;-79
2021/03/06 05:59:28;;;;;;;15.77;10.87;;;1.00;99.90;;;;;;5096416;28;20175;-83
2021/03/06 06:01:55;;;;;;;16.27;8.60;;;0.90;99.90;;;;;;5096135;28;20176;-83
2021/03/06 06:04:26;;;;;;;12.67;9.07;;;1.00;99.90;;;;;;5095986;28;20174;-83
2021/03/06 06:06:53;;;;;;;13.23;8.57;;;0.90;99.90;;;;;;5097525;28;20211;-82
2021/03/06 06:09:20;;;;;;;13.83;8.87;;;0.90;99.90;;;;;;5100389;28;20178;-85
2021/03/06 06:11:45;;;;;;;15.23;9.43;;;0.90;99.90;;;;;;5098394;28;20179;-79
2021/03/06 06:14:11;;;;;;;12.80;9.30;;;0.90;99.90;;;;;;5099738;28;20229;-84
2021/03/06 06:16:37;;;;;;;12.17;9.63;;;0.80;99.90;;;;;;5098886;28;20176;-81
2021/03/06 06:19:03;;;;;;;15.57;11.30;;;0.80;99.90;;;;;;5095278;28;20215;-81
2021/03/06 06:21:46;;;;;;;11.33;8.77;;;0.80;99.90;;;;;;5095531;28;20701;-85
2021/03/06 06:24:21;;;;;;;12.67;9.53;;;0.80;99.90;;;;;;5095583;28;20169;-80
2021/03/06 06:27:03;;;;;;;10.80;9.57;;;0.90;99.90;;;;;;5096689;28;20202;-86
2021/03/06 06:29:43;;;;;;;19.13;9.37;;;0.90;99.90;;;;;;5096313;28;20168;-80
2021/03/06 06:32:13;;;;;;;17.13;9.40;;;0.90;99.90;;;;;;5098459;28;20574;-80
2021/03/06 06:34:40;;;;;;;14.53;9.77;;;0.90;99.90;;;;;;5097661;28;20175;-84
2021/03/06 06:37:12;;;;;;;16.43;9.57;;;0.80;99.90;;;;;;5097197;28;20615;-86
2021/03/06 06:39:40;;;;;;;10.63;8.30;;;0.90;99.90;;;;;;5096210;28;20167;-83
2021/03/06 06:42:06;;;;;;;21.10;10.80;;;1.00;99.90;;;;;;5107295;28;20168;-80
2021/03/06 06:44:33;;;;;;;12.93;8.70;;;1.00;99.90;;;;;;5108112;28;20195;-81
2021/03/06 06:47:14;;;;;;;12.10;10.10;;;1.00;99.90;;;;;;5097854;28;20513;-80
2021/03/06 06:52:58;;;;;;;17.80;10.13;;;1.00;99.90;;;;;;5109196;28;20219;-82
2021/03/06 06:55:37;;;;;;;17.77;10.67;;;1.00;99.90;;;;;;5116185;27;20176;-82
2021/03/06 06:58:03;;;;;;;13.97;9.40;;;1.10;99.90;;;;;;5099800;28;20182;-81
2021/03/06 07:00:31;;;;;;;17.70;10.37;;;1.10;99.90;;;;;;5116860;27;20229;-81
2021/03/06 07:03:03;;;;;;;13.63;9.70;;;1.00;99.90;;;;;;5102569;28;20164;-85
2021/03/06 07:05:41;;;;;;;15.00;9.70;;;1.00;99.90;;;;;;5099705;28;20172;-87
2021/03/06 07:08:28;;;;;;;14.20;9.40;;;1.00;99.90;;;;;;5095524;28;20210;-81
2021/03/06 07:10:54;;;;;;;15.10;10.13;;;1.10;99.90;;;;;;5095034;28;20988;-81
2021/03/06 07:13:20;;;;;;;16.73;10.23;;;1.10;99.90;;;;;;5095421;28;20172;-80
2021/03/06 07:15:53;;;;;;;17.40;9.73;;;1.10;99.90;;;;;;5094599;28;20534;-82
2021/03/06 07:18:19;;;;;;;14.47;9.77;;;1.10;99.90;;;;;;5094358;28;20693;-81
2021/03/06 07:20:47;;;;;;;13.33;9.87;;;1.10;99.90;;;;;;5094682;28;20240;-83
2021/03/06 07:23:24;;;;;;;18.70;10.73;;;1.10;99.90;;;;;;5094594;28;20175;-80
2021/03/06 07:25:57;;;;;;;16.67;10.03;;;1.10;99.90;;;;;;5095656;28;20164;-85
2021/03/06 07:28:24;;;;;;;16.23;10.40;;;1.10;99.90;;;;;;5094958;28;20214;-84
2021/03/06 07:30:50;;;;;;;17.70;9.63;;;1.00;99.90;;;;;;5095929;28;20170;-83
2021/03/06 07:33:18;;;;;;;18.13;10.67;;;1.00;99.90;;;;;;5094960;28;20210;-81
2021/03/06 07:35:46;;;;;;;15.20;11.20;;;1.00;99.90;;;;;;5096230;28;20239;-83
2021/03/06 07:38:18;;;;;;;12.77;10.20;;;1.10;99.90;;;;;;5093554;28;20171;-79
2021/03/06 07:40:55;;;;;;;17.30;10.87;;;1.20;99.90;;;;;;5093853;28;20226;-83
2021/03/06 07:43:23;;;;;;;15.13;10.03;;;1.20;99.90;;;;;;5090726;28;20175;-85
2021/03/06 07:45:51;;;;;;;17.17;10.03;;;1.20;99.90;;;;;;5107590;28;20164;-82
2021/03/06 07:48:19;;;;;;;18.80;11.17;;;1.30;99.90;;;;;;5094846;28;20212;-84
2021/03/06 07:50:52;;;;;;;18.17;10.27;;;1.30;99.90;;;;;;5090008;28;20194;-82
2021/03/06 07:53:20;;;;;;;15.40;9.90;;;1.40;99.90;;;;;;5090874;28;20173;-80
2021/03/06 07:55:51;;;;;;;17.97;10.27;;;1.50;99.90;;;;;;5108714;27;20170;-79
2021/03/06 07:58:23;;;;;;;13.97;9.60;;;1.70;99.90;;;;;;5098140;27;20697;-85
2021/03/06 08:00:59;;;;;;;11.83;8.93;;;1.70;99.90;;;;;;5077067;28;20172;-88
2021/03/06 08:03:27;;;;;;;11.93;8.40;;;1.80;99.90;;;;;;5074328;28;20172;-82
2021/03/06 08:06:00;;;;;;;12.63;8.57;;;1.90;99.90;;;;;;5077442;28;20198;-86
2021/03/06 08:08:37;;;;;;;18.20;8.83;;;2.00;99.90;;;;;;5076365;28;20182;-83
2021/03/06 08:11:05;;;;;;;12.83;9.23;;;2.00;99.90;;;;;;5101435;28;20199;-83
2021/03/06 08:13:34;;;;;;;11.87;8.80;;;2.10;99.90;;;;;;5101433;28;20174;-80
2021/03/06 08:16:23;;;;;;;13.67;8.77;;;2.10;99.90;;;;;;5095812;28;20321;-80
2021/03/06 08:19:01;;;;;;;10.33;8.90;;;2.20;99.90;;;;;;5107275;27;20195;-79
2021/03/06 08:21:47;;;;;;;10.67;9.43;;;2.50;99.90;;;;;;5103494;28;20264;-85
2021/03/06 08:24:19;;;;;;;15.87;8.97;;;2.40;99.90;;;;;;5093168;28;20160;-86
2021/03/06 08:27:07;;;;;;;17.53;9.57;;;2.40;99.90;;;;;;5090931;28;20195;-80
2021/03/06 08:29:37;;;;;;;13.03;8.83;;;2.50;99.90;;;;;;5095631;28;20161;-81
2021/03/06 08:32:13;;;;;;;16.07;9.07;;;2.50;99.90;;;;;;5106679;28;20172;-81
2021/03/06 08:34:47;;;;;;;14.60;8.90;;;2.60;99.90;;;;;;5113049;28;20178;-80
2021/03/06 08:37:19;;;;;;;17.70;9.83;;;2.80;99.90;;;;;;5100759;28;20328;-81
2021/03/06 08:39:57;;;;;;;18.20;9.07;;;2.80;99.90;;;;;;5099480;28;20172;-81
2021/03/06 08:42:50;;;;;;;13.00;8.70;;;3.00;99.90;;;;;;5099635;28;20229;-83
2021/03/06 08:45:28;;;;;;;11.53;8.07;;;3.10;99.90;;;;;;5086499;28;20183;-84
2021/03/06 08:47:59;;;;;;;14.37;9.17;;;3.10;99.90;;;;;;5097247;28;20259;-81
2021/03/06 08:50:27;;;;;;;10.63;8.33;;;3.20;99.90;;;;;;5095079;28;20205;-85
2021/03/06 08:53:01;;;;;;;13.63;8.53;;;3.30;99.90;;;;;;5093221;28;20619;-86
2021/03/06 08:58:52;;;;;;;12.80;8.07;;;3.50;99.90;;;;;;5095975;28;20237;-86
2021/03/06 09:01:20;;;;;;;8.77;7.17;;;3.70;99.90;;;;;;5097455;28;20213;-79
2021/03/06 09:03:48;;;;;;;12.67;9.03;;;3.90;99.90;;;;;;5112774;28;20222;-82
2021/03/06 09:06:14;;;;;;;13.47;7.47;;;4.00;99.90;;;;;;5111166;28;20187;-79
2021/03/06 09:08:39;;;;;;;12.37;7.83;;;3.90;99.90;;;;;;5108535;28;20185;-85
2021/03/06 09:11:05;;;;;;;12.80;7.07;;;4.00;99.90;;;;;;5108141;28;20194;-83
2021/03/06 09:13:32;;;;;;;10.23;7.37;;;4.10;99.90;;;;;;5106769;28;20218;-84
2021/03/06 09:16:02;;;;;;;10.07;7.00;;;4.20;99.90;;;;;;5095458;28;20172;-87
2021/03/06 09:18:30;;;;;;;14.73;7.77;;;4.20;99.90;;;;;;5096729;28;20259;-85
2021/03/06 09:21:05;;;;;;;9.17;6.63;;;4.30;99.90;;;;;;5095197;28;20226;-83
2021/03/06 09:23:39;;;;;;;9.40;6.60;;;4.40;99.90;;;;;;5094798;28;20186;-85
2021/03/06 09:26:19;;;;;;;15.20;6.97;;;4.50;99.90;;;;;;5102188;28;20192;-83
2021/03/06 09:29:33;;;;;;;9.37;6.77;;;4.60;99.90;;;;;;5104177;28;20160;-89
2021/03/06 09:32:14;;;;;;;10.73;7.30;;;4.70;99.90;;;;;;5107021;28;20241;-81
2021/03/06 09:34:45;;;;;;;12.53;8.23;;;4.90;99.90;;;;;;5107405;28;20194;-81
2021/03/06 09:37:18;;;;;;;11.40;6.37;;;5.00;99.90;;;;;;5103588;28;20175;-82
2021/03/06 09:39:47;;;;;;;9.27;6.37;;;5.10;99.90;;;;;;5115043;27;20180;-80
2021/03/06 09:42:26;;;;;;;7.20;5.23;;;5.20;99.90;;;;;;5116054;27;20171;-82
2021/03/06 09:44:54;;;;;;;7.13;5.50;;;5.20;99.90;;;;;;5113066;27;20227;-81
2021/03/06 09:47:23;;;;;;;9.33;5.80;;;5.40;99.90;;;;;;5111695;27;20231;-86
2021/03/06 09:49:49;;;;;;;8.10;4.93;;;5.60;99.90;;;;;;5116106;27;20197;-82
2021/03/06 09:52:31;;;;;;;6.93;5.13;;;5.40;99.90;;;;;;5114069;28;20168;-85
2021/03/06 09:55:00;;;;;;;7.77;5.10;;;5.50;99.90;;;;;;5101710;28;20526;-83
2021/03/06 09:57:27;;;;;;;11.53;6.03;;;5.50;99.90;;;;;;5097119;28;20512;-85
2021/03/06 09:59:52;;;;;;;7.30;5.73;;;5.60;99.90;;;;;;5102090;28;20156;-81
2021/03/06 10:02:23;;;;;;;8.77;5.57;;;5.50;99.90;;;;;;5104042;28;20271;-83
2021/03/06 10:04:50;;;;;;;7.93;5.63;;;5.40;99.90;;;;;;5102220;28;20679;-83
2021/03/06 10:07:23;;;;;;;8.27;5.80;;;5.50;99.90;;;;;;5099011;28;20298;-84
2021/03/06 10:09:51;;;;;;;8.40;5.30;;;5.50;99.90;;;;;;5097672;28;20167;-87
2021/03/06 10:12:20;;;;;;;9.67;5.60;;;5.60;99.90;;;;;;5098097;28;20186;-84
2021/03/06 10:15:10;;;;;;;6.13;4.63;;;5.60;99.90;;;;;;5098968;28;20171;-86
2021/03/06 10:17:38;;;;;;;6.67;4.10;;;5.60;99.90;;;;;;5098806;28;20168;-87
2021/03/06 10:20:04;;;;;;;6.23;4.43;;;5.60;99.90;;;;;;5096910;28;20686;-84
2021/03/06 10:22:48;;;;;;;10.07;6.00;;;5.70;99.90;;;;;;5098258;28;20655;-87
2021/03/06 10:25:24;;;;;;;6.83;4.27;;;5.80;99.90;;;;;;5097941;28;20194;-84
2021/03/06 10:27:50;;;;;;;5.03;4.03;;;5.90;99.90;;;;;;5097889;28;20214;-91
2021/03/06 10:30:23;;;;;;;5.90;4.37;;;5.90;99.90;;;;;;5087810;28;20206;-86
2021/03/06 10:33:20;;;;;;;5.33;4.40;;;6.10;99.90;;;;;;5104236;28;20194;-84
2021/03/06 10:35:50;;;;;;;5.97;4.10;;;6.10;99.90;;;;;;5106843;28;20172;-83
2021/03/06 10:38:27;;;;;;;5.43;4.27;;;6.10;99.90;;;;;;5105285;28;20605;-82
2021/03/06 10:40:55;;;;;;;7.17;4.03;;;6.10;99.90;;;;;;5101652;28;20631;-82
2021/03/06 10:43:36;;;;;;;6.37;4.30;;;6.30;99.90;;;;;;5102569;28;20208;-85
2021/03/06 10:46:17;;;;;;;8.63;4.90;;;6.40;99.90;;;;;;5098135;28;20207;-83
2021/03/06 10:48:51;;;;;;;6.77;4.87;;;6.40;99.90;;;;;;5087598;28;20164;-84
2021/03/06 10:51:21;;;;;;;7.90;5.03;;;6.20;99.90;;;;;;5078211;28;20171;-86
2021/03/06 10:54:06;;;;;;;7.70;4.47;;;6.30;99.90;;;;;;5082866;28;20172;-83
2021/03/06 10:56:32;;;;;;;7.07;5.37;;;6.30;99.90;;;;;;5099959;28;20176;-81
2021/03/06 10:58:57;;;;;;;7.77;5.43;;;6.40;99.90;;;;;;5101544;28;20635;-91
2021/03/06 11:01:24;;;;;;;9.50;5.57;;;6.50;99.90;;;;;;5110220;28;20186;-84
2021/03/06 11:03:51;;;;;;;8.40;5.77;;;6.50;99.90;;;;;;5096448;28;20194;-82
2021/03/06 11:06:19;;;;;;;8.47;5.10;;;6.60;99.90;;;;;;5110760;27;20196;-80
2021/03/06 11:09:03;;;;;;;6.77;5.70;;;6.50;99.90;;;;;;5097170;28;20164;-82
2021/03/06 11:11:38;;;;;;;8.27;5.13;;;6.50;99.90;;;;;;5089635;28;20160;-82
2021/03/06 11:14:21;;;;;;;6.70;4.77;;;6.60;99.90;;;;;;5085937;28;20233;-81
2021/03/06 11:16:50;;;;;;;5.43;4.10;;;6.50;99.90;;;;;;5079989;28;20244;-88
2021/03/06 11:19:50;;;;;;;6.07;4.40;;;6.50;99.90;;;;;;5098013;28;20187;-86
2021/03/06 11:22:18;;;;;;;7.80;4.60;;;6.50;99.90;;;;;;5118502;28;20195;-85
2021/03/06 11:24:44;;;;;;;8.07;6.20;;;6.50;99.90;;;;;;5121779;28;20174;-80
2021/03/06 11:27:10;;;;;;;6.97;5.03;;;6.50;99.90;;;;;;5122649;28;20206;-80
2021/03/06 11:29:35;;;;;;;7.17;4.37;;;6.60;99.90;;;;;;5126271;28;20190;-78
2021/03/06 11:32:01;;;;;;;8.23;5.03;;;6.70;99.90;;;;;;5128668;28;20579;-81
2021/03/06 11:34:28;;;;;;;6.83;5.17;;;6.80;99.90;;;;;;5118057;28;20170;-78
2021/03/06 11:36:57;;;;;;;6.27;5.13;;;6.90;99.90;;;;;;5101881;28;20171;-83
2021/03/06 11:42:47;;;;;;;7.73;5.07;;;7.00;99.90;;;;;;5096667;28;20179;-81
2021/03/06 11:45:15;;;;;;;10.63;4.77;;;7.10;99.90;;;;;;5095894;28;20174;-85
2021/03/06 11:47:41;;;;;;;11.63;6.30;;;7.10;99.90;;;;;;5094269;28;20211;-88
2021/03/06 11:50:09;;;;;;;8.67;5.10;;;7.20;99.90;;;;;;5091196;28;20177;-90
2021/03/06 11:52:36;;;;;;;7.50;4.37;;;7.20;99.90;;;;;;5092899;28;20179;-89
2021/03/06 11:55:03;;;;;;;10.97;4.57;;;7.20;99.90;;;;;;5090320;28;20179;-94
2021/03/06 11:57:33;;;;;;;7.63;5.30;;;7.00;99.90;;;;;;5098954;28;20176;-86
2021/03/06 12:00:12;;;;;;;8.10;6.50;;;7.00;99.90;;;;;;5093978;28;20152;-84
2021/03/06 12:03:27;;;;;;;7.17;5.23;;;7.10;99.90;;;;;;5100416;27;20226;-83
2021/03/06 12:05:53;;;;;;;6.63;4.80;;;7.20;99.90;;;;;;5108475;27;20188;-80
2021/03/06 12:08:19;;;;;;;7.17;5.00;;;7.10;99.90;;;;;;5095897;28;20215;-83
2021/03/06 12:10:44;;;;;;;9.97;6.60;;;7.10;99.90;;;;;;5107156;28;20573;-81
2021/03/06 12:13:12;;;;;;;7.43;4.83;;;7.30;99.90;;;;;;5100525;28;20179;-83
2021/03/06 12:15:41;;;;;;;7.87;6.30;;;7.20;99.90;;;;;;5091859;28;20176;-82
2021/03/06 12:18:09;;;;;;;8.70;4.73;;;7.30;99.90;;;;;;5078375;28;20660;-88
2021/03/06 12:20:39;;;;;;;6.57;4.30;;;7.30;99.90;;;;;;5077121;28;20586;-82
2021/03/06 12:23:06;;;;;;;5.83;5.03;;;7.10;99.90;;;;;;5076853;28;20241;-88
2021/03/06 12:25:32;;;;;;;6.40;5.13;;;7.20;99.90;;;;;;5076887;28;20180;-92
2021/03/06 12:27:57;;;;;;;8.80;5.43;;;7.30;99.90;;;;;;5060283;28;20219;-88
2021/03/06 12:30:24;;;;;;;6.27;4.83;;;7.50;99.90;;;;;;5078184;28;20523;-88
2021/03/06 12:32:51;;;;;;;6.47;5.07;;;7.50;99.90;;;;;;5082472;28;20283;-80
2021/03/06 12:35:18;;;;;;;7.10;4.73;;;7.50;99.90;;;;;;5088589;28;20167;-82
2021/03/06 12:37:47;;;;;;;6.87;5.43;;;7.30;99.90;;;;;;5087914;28;20176;-80
2021/03/06 12:40:14;;;;;;;7.07;5.20;;;7.30;99.90;;;;;;5083221;28;20175;-80
2021/03/06 12:42:41;;;;;;;8.57;5.20;;;7.30;99.90;;;;;;5083110;28;20456;-86
2021/03/06 12:45:26;;;;;;;9.03;5.50;;;7.30;99.90;;;;;;5080044;28;20187;-84
2021/03/06 12:47:54;;;;;;;7.97;4.70;;;7.40;99.90;;;;;;5074922;28;20262;-88
2021/03/06 12:50:21;;;;;;;7.53;4.90;;;7.40;99.90;;;;;;5076257;28;20156;-92
2021/03/06 12:52:47;;;;;;;6.30;5.37;;;7.30;99.90;;;;;;5086363;28;20187;-86
2021/03/06 12:55:13;;;;;;;8.80;5.67;;;7.40;99.90;;;;;;5080525;28;20172;-81
2021/03/06 12:57:38;;;;;;;6.60;4.33;;;7.50;99.90;;;;;;5085770;28;20161;-79
2021/03/06 13:00:05;;;;;;;6.63;4.63;;;7.50;99.90;;;;;;5084710;28;20549;-81
2021/03/06 13:02:32;;;;;;;6.00;4.40;;;7.50;99.90;;;;;;5076239;28;20172;-90
2021/03/06 13:04:59;;;;;;;6.57;4.43;;;7.50;99.90;;;;;;5080753;28;20191;-80
2021/03/06 13:07:26;;;;;;;7.60;4.23;;;7.60;99.90;;;;;;5084250;28;20196;-95
2021/03/06 13:09:52;;;;;;;8.83;4.20;;;7.70;99.90;;;;;;5075092;28;20247;-81
2021/03/06 13:12:17;;;;;;;10.63;4.33;;;7.70;99.90;;;;;;5075466;28;20633;-83
2021/03/06 13:14:43;;;;;;;6.77;4.27;;;7.70;99.90;;;;;;5076256;28;20533;-88
2021/03/06 13:17:08;;;;;;;10.13;4.17;;;7.70;99.90;;;;;;5075774;28;20537;-87
2021/03/06 13:19:35;;;;;;;6.70;4.03;;;7.60;99.90;;;;;;5073685;28;20194;-87
2021/03/06 13:22:01;;;;;;;5.93;4.03;;;7.50;99.90;;;;;;5078180;28;20710;-84
2021/03/06 13:24:28;;;;;;;5.67;3.73;;;7.40;99.90;;;;;;5075595;28;20208;-79
2021/03/06 13:26:53;;;;;;;8.33;3.80;;;7.40;99.90;;;;;;5076772;28;20218;-92
2021/03/06 13:29:19;;;;;;;5.17;3.50;;;7.40;99.90;;;;;;5073973;28;20172;-79